Flight Track Log - Related Links

Times and Time Zones

All times are in EDT time to prevent confusion due to time zone crossing. See the N234CE flight status page for this flight to view local times or setup timezone preferences in your user account.

Time Position Orientation Groundspeed Altitude Reporting Facility
EDT Latitude Longitude Course Direction KTS MPH feet Rate Location/Type
Wed 08:00:28 PM 67.0333 -150.1833 152° Southeast 160 184 7,400  Level Anchorage Center
Wed 08:01:28 PM 67.0000 -150.1333 150° Southeast 160 184 8,300 800 Climbing Anchorage Center
Wed 08:02:28 PM 66.9500 -150.0833 159° South 160 184 9,000 350 Climbing Anchorage Center
Wed 08:03:28 PM 66.9167 -150.0167 142° Southeast 190 219 9,000  Level Anchorage Center
Wed 08:04:28 PM 66.8500 -149.9667 164° South 200 230 9,000  Level Anchorage Center
Wed 08:05:00 PM 66.9786 -149.9214 152° Southeast  Level FlightAware Approximate
Wed 08:05:28 PM 66.8000 -149.9000 152° Southeast 210 242 9,000  Level Anchorage Center
Wed 08:06:28 PM 66.7500 -149.8500 158° South 190 219 9,000  Level Anchorage Center
Wed 08:07:28 PM 66.7000 -149.8000 158° South 200 230 9,000  Level Anchorage Center
Wed 08:08:28 PM 66.6500 -149.7500 158° South 180 207 9,000 150 Level Anchorage Center
Wed 08:09:28 PM 66.6000 -149.6833 152° Southeast 230 265 9,300  Climbing Anchorage Center
Wed 08:10:29 PM 66.5500 -149.6333 158° South 180 207 9,000 -149 Descending Anchorage Center
Wed 08:11:29 PM 66.5000 -149.5833 158° South 210 242 9,000  Level Anchorage Center
Wed 08:12:29 PM 66.4500 -149.5167 152° Southeast 200 230 9,000  Level Anchorage Center
Wed 08:13:29 PM 66.4167 -149.4667 149° Southeast 190 219 9,000  Level Anchorage Center
Wed 08:14:29 PM 66.3667 -149.4000 152° Southeast 190 219 9,000  Level Anchorage Center
Wed 08:15:29 PM 66.3167 -149.3667 165° South 190 219 9,000  Level Anchorage Center
Wed 08:16:29 PM 66.2667 -149.3167 158° South 200 230 9,000  Level Anchorage Center
Wed 08:17:29 PM 66.2167 -149.2500 152° Southeast 200 230 9,000 100 Level Anchorage Center
Wed 08:18:29 PM 66.1667 -149.2000 158° South 190 219 9,200 100 Climbing Anchorage Center
Wed 08:19:29 PM 66.1167 -149.1500 158° South 200 230 9,200  Level Anchorage Center
Wed 08:20:29 PM 66.0667 -149.1000 158° South 190 219 9,200  Level Anchorage Center
Wed 08:21:30 PM 66.0167 -149.0500 158° South 190 219 9,200  Level Anchorage Center
Wed 08:22:30 PM 65.9667 -149.0000 158° South 200 230 9,200  Level Anchorage Center
Wed 08:23:30 PM 65.9167 -148.9500 158° South 190 219 9,200  Level Anchorage Center
Wed 08:24:30 PM 65.8667 -148.9000 158° South 190 219 9,200  Level Anchorage Center
Wed 08:25:30 PM 65.8167 -148.8500 158° South 190 219 9,200  Level Anchorage Center
Wed 08:26:30 PM 65.7667 -148.8000 158° South 200 230 9,200  Level Anchorage Center
Wed 08:27:30 PM 65.7167 -148.7500 158° South 190 219 9,200  Level Anchorage Center
Wed 08:28:30 PM 65.6833 -148.7000 148° Southeast 190 219 9,200 -50 Level Anchorage Center
Wed 08:29:30 PM 65.6333 -148.6500 158° South 190 219 9,100 -50 Descending Anchorage Center
Wed 08:30:30 PM 65.5833 -148.6000 158° South 190 219 9,100  Level Anchorage Center
Wed 08:31:30 PM 65.5333 -148.5333 151° Southeast 190 219 9,100  Level Anchorage Center
Wed 08:32:30 PM 65.5000 -148.4333 129° Southeast 190 219 9,100  Level Anchorage Center
Wed 08:34:00 PM 65.4419 -148.3117 139° Southeast  Level FlightAware Approximate
Wed 08:41:00 PM 65.1656 -147.7625 143° Southeast  Level FlightAware Approximate
Wed 08:42:00 PM 65.1245 -147.6895 143° Southeast  Level FlightAware Approximate
Wed 08:43:00 PM 65.0834 -147.6167 143° Southeast  Level FlightAware Approximate
Wed 08:44:00 PM 65.0347 -147.6552 198° South  Level FlightAware Approximate
Wed 08:45:00 PM 64.9860 -147.6935 198° South  Level FlightAware Approximate
Wed 08:46:00 PM 64.9373 -147.7318 198° South  Level FlightAware Approximate
Wed 08:47:00 PM 64.8887 -147.7699 198° South  Level FlightAware Approximate
Wed 08:48:00 PM 64.8403 -147.8097 203° Southwest  Level FlightAware Approximate
Wed 08:49:00 PM 64.8151 -147.8564 203° Southwest  Level Estimated
Wed 08:50:00 PM 64.8151 -147.8564 203° Southwest  Level Estimated
Wed 08:51:00 PM 64.8151 -147.8564 203° Southwest  Level Estimated
Wed 08:52:00 PM 64.8151 -147.8564 203° Southwest  Level Estimated
Wed 08:53:00 PM 64.8151 -147.8564 203° Southwest  Level Estimated
Wed 08:54:00 PM 64.8151 -147.8564 203° Southwest  Level Estimated
Wed 08:55:00 PM 64.8151 -147.8564 203° Southwest  Level Estimated
Wed 08:56:00 PM 64.8151 -147.8564 203° Southwest  Level Estimated
Wed 08:57:00 PM 64.8151 -147.8564 203° Southwest  Level Estimated
Wed 08:58:00 PM 64.8151 -147.8564 203° Southwest  Level Estimated
Wed 08:59:00 PM 64.8151 -147.8564 203° Southwest  Level Estimated
Wed 09:00:00 PM 64.8151 -147.8564 203° Southwest  Level Estimated
Wed 09:01:00 PM 64.8151 -147.8564 203° Southwest  Level Estimated
Wed 09:02:00 PM 64.8151 -147.8564 203° Southwest  Level Estimated
Wed 09:03:00 PM 64.8151 -147.8564 203° Southwest  Level Estimated
Wed 09:04:00 PM 64.8151 -147.8564 203° Southwest  Level Estimated
Wed 09:05:00 PM 64.8151 -147.8564 203° Southwest  Level Estimated
Wed 09:06:00 PM 64.8151 -147.8564 203° Southwest  Level Estimated

Login

Don't have an account? Register now (free) for customized features, flight alerts, and more!